Latest Weather Observations for Gayndah

IDQ60801

Issued at 2:32 pm EST Thursday 30 June 2016 (issued every 30 minutes, with the page automatically refreshed every 10 minutes)

About weather observations | Map of weather stations | Latest weather observations for QLD | Other Formats
Station Details ID: 039066 Name: GAYNDAH AIRPORT Lat: -25.62 Lon: 151.62 Height: 110.9 m
Data from the previous 72 hours. | See also: Recent months at Gayndah
Date/Time
EST
Temp
°C
App
Temp
°C
Dew
Point
°C
Rel
Hum
%
Delta-T
°C
Wind Press
QNH
hPa
Press
MSL
hPa
Rain since
9am
mm
Dir  Spd
km/h
Gust
km/h
Spd
kts
Gust
kts
30/02:30pm 22.5 19.9 7.9 39 7.7 NNW 11 19 6 10 1019.9 1019.8 0.0
30/02:00pm 22.6 20.8 9.4 43 7.1 NNW 9 19 5 10 1020.3 1020.2 0.0
30/01:30pm 21.3 19.1 9.5 47 6.4 NNE 11 17 6 9 1020.8 1020.7 0.0
30/01:00pm 21.3 19.4 9.2 46 6.5 NE 9 19 5 10 1021.4 1021.3 0.0
30/12:30pm 21.4 20.0 9.6 47 6.4 NNW 7 15 4 8 1022.0 1021.9 0.0
30/12:00pm 20.7 19.5 10.2 51 5.7 NE 7 13 4 7 1022.5 1022.4 0.0
30/11:30am 19.0 18.5 9.5 54 5.0 SW 2 6 1 3 1023.1 1023.0 0.0
30/11:00am 18.3 17.6 8.6 53 5.0 W 2 6 1 3 1023.5 1023.4 0.0
30/10:30am 16.8 15.1 7.7 55 4.6 W 6 9 3 5 1023.9 1023.7 0.0
30/10:00am 14.7 12.7 7.0 60 3.8 WSW 7 11 4 6 1024.2 1024.0 0.0
30/09:30am 12.9 10.9 6.9 67 2.9 WSW 7 9 4 5 1024.5 1024.3 0.0
30/09:00am 11.2 9.2 7.1 76 2.0 WSW 7 11 4 6 1024.6 1024.4 0.0
30/08:30am 9.0 6.9 5.9 81 1.4 WSW 6 9 3 5 1024.6 1024.4 0.0
30/08:00am 7.8 5.7 5.6 86 1.0 WSW 6 9 3 5 1024.5 1024.3 0.0
30/07:30am 5.4 3.8 4.7 95 0.3 SW 2 4 1 2 1024.2 1024.0 0.0
30/07:00am 4.0 1.4 3.4 96 0.2 SW 6 7 3 4 1024.0 1023.8 0.0
30/06:30am 3.3 1.4 2.7 96 0.2 SW 2 4 1 2 1023.8 1023.6 0.0
30/06:00am 3.2 1.6 2.6 96 0.2 CALM 0 0 0 0 1023.5 1023.4 0.0
30/05:30am 3.7 1.5 3.3 97 0.2 WSW 4 4 2 2 1023.2 1023.1 0.0
30/05:00am 3.3 1.0 2.7 96 0.2 SW 4 6 2 3 1023.1 1023.0 0.0
30/04:30am 3.4 1.9 2.8 96 0.2 CALM 0 0 0 0 1023.0 1022.9 0.0
30/04:00am 3.3 1.7 2.4 94 0.4 CALM 0 0 0 0 1023.0 1022.9 0.0
30/03:30am 4.0 2.6 3.4 96 0.2 CALM 0 0 0 0 1023.1 1023.0 0.0
30/03:00am 4.2 2.8 3.6 96 0.2 CALM 0 0 0 0 1023.2 1023.1 0.0
30/02:30am 4.1 2.6 2.9 92 0.5 CALM 0 0 0 0 1023.4 1023.3 0.0
30/02:00am 5.1 3.8 4.2 94 0.4 CALM 0 0 0 0 1023.9 1023.7 0.0
30/01:30am 5.7 4.5 4.8 94 0.4 CALM 0 0 0 0 1024.2 1024.0 0.0
30/01:00am 5.7 3.7 4.3 91 0.6 SSW 4 4 2 2 1024.4 1024.2 0.0
30/12:30am 6.3 5.2 4.9 91 0.6 CALM 0 0 0 0 1024.6 1024.4 0.0
30/12:00am 6.8 5.7 5.3 90 0.7 CALM 0 0 0 0 1024.7 1024.6 0.0
 
Date/Time
EST
Temp
°C
App
Temp
°C
Dew
Point
°C
Rel
Hum
%
Delta-T
°C
Wind Press
QNH
hPa
Press
MSL
hPa
Rain since
9am
mm
Dir  Spd
km/h
Gust
km/h
Spd
kts
Gust
kts
29/11:30pm 6.6 5.5 4.9 89 0.7 CALM 0 0 0 0 1024.9 1024.8 0.0
29/11:00pm 7.1 6.0 5.1 87 0.9 CALM 0 0 0 0 1025.1 1025.0 0.0
29/10:30pm 8.0 5.9 5.8 86 1.0 SW 6 6 3 3 1025.4 1025.3 0.0
29/10:00pm 8.5 7.4 5.1 79 1.5 CALM 0 0 0 0 1025.3 1025.2 0.0
29/09:30pm 9.5 8.4 5.1 74 2.0 CALM 0 0 0 0 1025.2 1025.1 0.0
29/09:00pm 9.1 7.9 4.5 73 2.0 CALM 0 0 0 0 1025.2 1025.1 0.0
29/08:30pm 10.7 9.5 4.8 67 2.7 CALM 0 0 0 0 1025.0 1024.9 0.0
29/08:00pm 11.6 10.2 5.5 66 2.8 SSE 2 6 1 3 1025.0 1024.9 0.0
29/07:30pm 11.7 9.8 5.1 64 3.0 SSE 4 4 2 2 1024.8 1024.7 0.0
29/07:00pm 11.9 9.5 5.3 64 3.0 NE 7 13 4 7 1024.7 1024.6 0.0
29/06:30pm 14.3 11.9 5.1 54 4.3 SSE 7 7 4 4 1024.4 1024.2 0.0
29/06:00pm 15.2 14.1 4.9 50 4.8 CALM 0 2 0 1 1024.0 1023.8 0.0
29/05:30pm 18.0 16.0 4.6 41 6.4 SSE 4 6 2 3 1023.7 1023.5 0.0
29/05:00pm 19.4 17.4 4.4 37 7.2 SSE 4 6 2 3 1023.2 1023.1 0.0
29/04:30pm 20.5 18.0 3.7 33 8.1 SSE 6 7 3 4 1023.1 1023.0 0.0
29/04:00pm 21.1 19.0 3.8 32 8.3 SSW 4 9 2 5 1023.0 1022.9 0.0
29/03:30pm 21.2 18.7 3.9 32 8.4 S 6 13 3 7 1023.0 1022.9 0.0
29/03:00pm 21.3 19.3 4.4 33 8.2 SSE 4 13 2 7 1022.9 1022.8 0.0
29/02:30pm 20.9 18.7 5.3 36 7.7 SW 6 13 3 7 1022.9 1022.8 0.0
29/02:00pm 20.9 19.1 5.3 36 7.7 NE 4 11 2 6 1023.2 1023.1 0.0
29/01:30pm 20.8 18.5 5.6 37 7.6 NW 7 13 4 7 1023.5 1023.4 0.0
29/01:00pm 19.9 17.9 6.3 41 6.8 SW 6 13 3 7 1024.0 1023.8 0.0
29/12:30pm 19.4 17.2 6.2 42 6.6 SSW 7 11 4 6 1024.3 1024.1 0.0
29/12:00pm 18.6 17.5 6.8 46 5.9 WSW 2 7 1 4 1024.9 1024.8 0.0
29/11:30am 17.4 15.7 6.0 47 5.6 WSW 4 9 2 5 1025.6 1025.5 0.0
29/11:00am 15.7 13.9 5.3 50 4.9 NW 4 9 2 5 1026.2 1026.1 0.0
29/10:30am 14.3 12.6 5.9 57 4.0 WSW 4 7 2 4 1026.7 1026.6 0.0
29/10:00am 12.6 10.2 5.3 61 3.4 W 7 11 4 6 1027.1 1027.0 0.0
29/09:30am 11.3 8.2 5.4 67 2.7 SW 11 17 6 9 1027.4 1027.3 0.0
29/09:00am 9.6 6.4 5.0 73 2.1 WSW 11 15 6 8 1027.4 1027.3 0.0
29/08:30am 8.6 5.4 5.0 78 1.6 WSW 11 17 6 9 1027.5 1027.4 0.0
29/08:00am 7.3 4.1 5.0 85 1.0 SW 11 15 6 8 1027.3 1027.2 0.0
29/07:30am 5.3 2.9 4.3 93 0.4 SW 6 11 3 6 1027.0 1026.9 0.0
29/07:00am 3.6 1.7 2.9 95 0.3 WSW 2 6 1 3 1026.7 1026.6 0.0
29/06:30am 3.4 0.7 2.4 93 0.4 SW 6 9 3 5 1026.5 1026.4 0.0
29/06:00am 3.7 0.5 3.0 95 0.3 WSW 9 11 5 6 1026.3 1026.2 0.0
29/05:30am 3.5 1.9 2.6 94 0.4 CALM 0 0 0 0 1025.9 1025.8 0.0
29/05:00am 3.8 1.9 2.9 94 0.4 SSW 2 2 1 1 1025.6 1025.5 0.0
29/04:30am 3.6 1.2 2.4 92 0.5 S 4 6 2 3 1025.4 1025.3 0.0
29/04:00am 4.2 1.3 2.6 89 0.6 SW 7 9 4 5 1025.5 1025.4 0.0
29/03:30am 5.4 3.1 2.9 84 1.0 SW 4 6 2 3 1025.5 1025.4 0.0
29/03:00am 6.2 4.0 3.2 81 1.3 WSW 4 6 2 3 1025.5 1025.4 0.0
29/02:30am 7.1 4.4 3.5 78 1.5 WSW 7 9 4 5 1025.6 1025.5 0.0
29/02:00am 7.5 4.8 3.6 76 1.7 WSW 7 9 4 5 1025.6 1025.5 0.0
29/01:30am 7.8 4.7 3.8 76 1.7 WSW 9 11 5 6 1025.6 1025.5 0.0
29/01:00am 8.1 5.6 3.9 75 1.8 W 6 9 3 5 1025.6 1025.5 0.0
29/12:30am 8.4 5.8 4.0 74 1.9 W 7 11 4 6 1025.7 1025.6 0.0
29/12:00am 8.0 5.3 3.8 75 1.8 WSW 7 11 4 6 1025.7 1025.6 0.0
 
Date/Time
EST
Temp
°C
App
Temp
°C
Dew
Point
°C
Rel
Hum
%
Delta-T
°C
Wind Press
QNH
hPa
Press
MSL
hPa
Rain since
9am
mm
Dir  Spd
km/h
Gust
km/h
Spd
kts
Gust
kts
28/11:30pm 8.0 5.3 3.7 74 1.9 SW 7 11 4 6 1025.9 1025.8 0.0
28/11:00pm 8.6 5.9 3.6 71 2.2 SW 7 9 4 5 1026.0 1025.9 0.0
28/10:30pm 8.0 5.9 3.8 75 1.8 SW 4 7 2 4 1026.1 1026.0 0.0
28/10:00pm 8.0 5.7 2.7 69 2.2 W 4 7 2 4 1026.2 1026.1 0.0
28/09:30pm 9.8 7.3 3.5 65 2.8 WSW 6 7 3 4 1026.1 1026.0 0.0
28/09:00pm 10.3 7.6 2.9 60 3.2 WSW 6 13 3 7 1026.2 1026.1 0.0
28/08:30pm 10.8 7.2 3.1 59 3.4 WSW 11 17 6 9 1025.8 1025.7 0.0
28/08:00pm 10.9 8.3 3.0 58 3.4 W 6 9 3 5 1025.6 1025.5 0.0
28/07:30pm 11.2 8.3 2.8 56 3.7 WSW 7 11 4 6 1025.4 1025.3 0.0
28/07:00pm 12.4 9.8 3.1 53 4.1 SE 6 11 3 6 1025.0 1024.9 0.0
28/06:30pm 11.9 9.0 2.6 53 4.1 SW 7 15 4 8 1024.5 1024.3 0.0
28/06:00pm 12.2 8.5 2.4 51 4.3 SW 11 15 6 8 1024.1 1023.9 0.0
28/05:30pm 13.5 8.6 2.1 46 5.0 SW 17 22 9 12 1023.4 1023.3 0.0
28/05:00pm 14.4 9.5 2.0 43 5.4 SW 17 24 9 13 1022.9 1022.8 0.0
28/04:30pm 15.5 10.6 2.0 40 6.0 SW 17 26 9 14 1022.6 1022.5 0.0
28/04:00pm 16.1 10.1 1.0 36 6.6 SSW 22 37 12 20 1022.2 1022.1 0.0
28/03:30pm 16.6 10.7 1.5 36 6.7 SSW 22 35 12 19 1022.1 1022.0 0.0
28/03:00pm 16.4 10.8 0.9 35 6.8 SSW 20 32 11 17 1021.8 1021.7 0.0
28/02:30pm 16.1 9.8 1.4 37 6.5 SW 24 35 13 19 1021.6 1021.5 0.0
28/02:00pm 16.1 10.0 2.5 40 6.1 SW 24 35 13 19 1021.8 1021.7 0.0
28/01:30pm 15.5 9.4 3.0 43 5.7 SW 24 37 13 20 1021.8 1021.7 0.0
28/01:00pm 15.3 9.2 2.8 43 5.6 SW 24 39 13 21 1021.9 1021.8 0.0
28/12:30pm 15.2 8.3 2.7 43 5.6 SW 28 39 15 21 1022.1 1022.0 0.0
28/12:00pm 14.5 8.4 2.7 45 5.3 SW 24 39 13 21 1022.4 1022.3 0.0
28/11:30am 13.7 6.8 2.3 46 5.0 SW 28 43 15 23 1022.8 1022.7 0.0
28/11:00am 12.7 5.4 2.6 50 4.4 SW 30 41 16 22 1023.3 1023.2 0.0
28/10:30am 11.9 5.4 2.6 53 4.1 SW 26 41 14 22 1023.5 1023.4 0.0
28/10:00am 11.5 4.7 3.3 57 3.6 SW 28 43 15 23 1024.1 1023.9 0.0
28/09:30am 10.4 3.6 3.0 60 3.2 SW 28 37 15 20 1024.3 1024.1 0.0
28/09:00am 9.9 3.1 3.0 62 3.0 SSW 28 41 15 22 1024.3 1024.1 0.0
28/08:30am 9.2 1.9 2.5 63 2.8 SSW 30 43 16 23 1024.1 1023.9 0.0
28/08:00am 9.0 3.3 2.8 65 2.6 SW 22 35 12 19 1023.8 1023.6 0.0
28/07:30am 8.1 2.7 2.4 67 2.4 SW 20 33 11 18 1023.3 1023.2 0.0
28/07:00am 6.9 3.5 1.8 70 2.1 SW 9 13 5 7 1023.2 1023.1 0.0
28/06:30am 7.3 3.2 2.0 69 2.2 SW 13 19 7 10 1022.9 1022.8 0.0
28/06:00am 7.2 3.9 2.3 71 2.0 SW 9 13 5 7 1022.8 1022.7 0.0
28/05:30am 7.5 3.8 2.2 69 2.2 WSW 11 17 6 9 1022.3 1022.2 0.0
28/05:00am 8.1 2.2 1.9 65 2.6 SW 22 32 12 17 1022.0 1021.9 0.0
28/04:30am 8.4 2.5 2.0 64 2.7 SW 22 37 12 20 1021.9 1021.8 0.0
28/04:00am 8.6 2.1 2.4 65 2.6 SW 26 41 14 22 1021.7 1021.6 0.0
28/03:30am 8.9 2.0 2.5 64 2.7 SW 28 37 15 20 1021.5 1021.4 0.0
28/03:00am 9.0 2.8 2.3 63 2.8 SSW 24 35 13 19 1021.7 1021.6 0.0
28/02:30am 9.3 3.6 3.1 65 2.7 SW 22 35 12 19 1021.6 1021.5 0.0
28/02:00am 9.4 4.1 3.2 65 2.7 SW 20 30 11 16 1021.7 1021.6 0.0
28/01:30am 9.5 3.8 3.0 64 2.8 SSW 22 32 12 17 1021.5 1021.4 0.0
28/01:00am 9.9 3.5 3.2 63 2.9 SW 26 37 14 20 1021.6 1021.5 0.0
28/12:30am 10.8 5.3 3.8 62 3.1 SW 22 33 12 18 1021.0 1020.9 0.0
28/12:00am 10.9 6.3 3.9 62 3.1 SW 17 28 9 15 1020.8 1020.7 0.0
 
Date/Time
EST
Temp
°C
App
Temp
°C
Dew
Point
°C
Rel
Hum
%
Delta-T
°C
Wind Press
QNH
hPa
Press
MSL
hPa
Rain since
9am
mm
Dir  Spd
km/h
Gust
km/h
Spd
kts
Gust
kts
27/11:30pm 11.1 5.1 3.6 60 3.3 SW 24 35 13 19 1021.0 1020.9 0.0
27/11:00pm 11.6 6.9 5.0 64 3.0 WSW 19 33 10 18 1020.9 1020.8 0.0
27/10:30pm 11.8 7.5 5.2 64 3.1 WSW 17 30 9 16 1021.0 1020.9 0.0
27/10:00pm 11.6 8.4 5.0 64 3.0 WSW 11 19 6 10 1020.9 1020.8 0.0
27/09:30pm 12.1 8.0 4.3 59 3.5 SW 15 22 8 12 1020.9 1020.8 0.0
27/09:00pm 12.6 7.0 3.6 54 4.0 SW 22 32 12 17 1020.7 1020.6 0.0
27/08:30pm 13.1 8.8 5.3 59 3.7 SW 17 26 9 14 1020.4 1020.3 0.0
27/08:00pm 13.4 8.1 5.1 57 3.9 SW 22 30 12 16 1020.1 1020.0 0.0
27/07:30pm 13.3 9.6 6.2 62 3.4 SW 15 26 8 14 1019.8 1019.7 0.0
27/07:00pm 12.9 9.1 5.8 62 3.3 SW 15 24 8 13 1019.4 1019.3 0.0
27/06:30pm 13.8 9.9 7.1 64 3.3 SW 17 28 9 15 1019.0 1018.9 0.0
27/06:00pm 14.4 10.7 8.1 66 3.2 SW 17 28 9 15 1018.5 1018.4 0.0
27/05:30pm 14.7 11.9 8.6 67 3.1 WSW 13 20 7 11 1018.0 1017.9 0.0
27/05:00pm 15.5 12.1 9.0 65 3.3 WSW 17 24 9 13 1017.5 1017.4 0.0
27/04:30pm 16.0 13.8 9.4 65 3.4 WSW 11 19 6 10 1017.1 1017.0 0.0
27/04:00pm 16.3 13.0 9.7 65 3.5 WSW 17 28 9 15 1016.9 1016.7 0.0
27/03:30pm 15.8 12.6 10.1 69 3.0 WSW 17 24 9 13 1016.8 1016.6 0.0
27/03:00pm 15.6 13.4 10.8 73 2.6 WSW 13 24 7 13 1016.5 1016.3 0.0

Other Formats:

Comma delimited format used in spreadsheet applications
http://www.bom.gov.au/fwo/IDQ60801/IDQ60801.95543.axf

JavaScript Object Notation format (JSON) in row-major order
http://www.bom.gov.au/fwo/IDQ60801/IDQ60801.95543.json